sensor_id;sensor_type;location;lat;lon;timestamp;pressure;altitude;pressure_sealevel;temperature;humidity
53546;BME280;39432;51.902;10.844;2024-03-23T00:51:19;98991.94;;;9.48;100.00
53546;BME280;39432;51.902;10.844;2024-03-23T00:53:46;98973.03;;;8.89;100.00
53546;BME280;39432;51.902;10.844;2024-03-23T00:56:12;98974.50;;;9.54;100.00
53546;BME280;39432;51.902;10.844;2024-03-23T00:58:42;98965.19;;;9.45;100.00
53546;BME280;39432;51.902;10.844;2024-03-23T01:01:08;98956.94;;;9.30;100.00
53546;BME280;39432;51.902;10.844;2024-03-23T01:03:37;98955.22;;;9.13;100.00
53546;BME280;39432;51.902;10.844;2024-03-23T01:06:04;98952.84;;;8.90;100.00
53546;BME280;39432;51.902;10.844;2024-03-23T01:08:37;98954.03;;;9.04;100.00
53546;BME280;39432;51.902;10.844;2024-03-23T01:11:08;98949.06;;;8.54;100.00
53546;BME280;39432;51.902;10.844;2024-03-23T01:13:41;98948.41;;;8.79;100.00
53546;BME280;39432;51.902;10.844;2024-03-23T01:16:08;98939.19;;;8.80;100.00
53546;BME280;39432;51.902;10.844;2024-03-23T01:18:35;98939.22;;;8.85;100.00
53546;BME280;39432;51.902;10.844;2024-03-23T01:21:03;98943.00;;;8.84;100.00
53546;BME280;39432;51.902;10.844;2024-03-23T01:23:30;98951.84;;;8.96;100.00
53546;BME280;39432;51.902;10.844;2024-03-23T01:26:00;98953.97;;;8.94;100.00
53546;BME280;39432;51.902;10.844;2024-03-23T01:28:28;98952.72;;;9.07;100.00
53546;BME280;39432;51.902;10.844;2024-03-23T01:30:55;98941.28;;;8.73;100.00
53546;BME280;39432;51.902;10.844;2024-03-23T01:33:23;98939.69;;;8.77;100.00
53546;BME280;39432;51.902;10.844;2024-03-23T01:35:49;98946.78;;;8.78;100.00
53546;BME280;39432;51.902;10.844;2024-03-23T01:38:16;98942.13;;;9.20;100.00
53546;BME280;39432;51.902;10.844;2024-03-23T01:40:42;98937.72;;;9.09;100.00
53546;BME280;39432;51.902;10.844;2024-03-23T01:43:11;98906.56;;;8.58;100.00
53546;BME280;39432;51.902;10.844;2024-03-23T01:45:38;98913.47;;;8.70;100.00
53546;BME280;39432;51.902;10.844;2024-03-23T01:48:07;98913.00;;;8.84;100.00
53546;BME280;39432;51.902;10.844;2024-03-23T01:50:34;98920.66;;;8.87;100.00
53546;BME280;39432;51.902;10.844;2024-03-23T01:53:02;98915.66;;;8.68;100.00
53546;BME280;39432;51.902;10.844;2024-03-23T01:55:29;98913.81;;;8.84;100.00
53546;BME280;39432;51.902;10.844;2024-03-23T01:57:56;98913.41;;;9.03;100.00
53546;BME280;39432;51.902;10.844;2024-03-23T02:00:26;98903.75;;;8.90;100.00
53546;BME280;39432;51.902;10.844;2024-03-23T02:02:55;98907.22;;;8.75;100.00
53546;BME280;39432;51.902;10.844;2024-03-23T02:05:23;98905.78;;;8.30;100.00
53546;BME280;39432;51.902;10.844;2024-03-23T02:07:53;98912.75;;;8.48;100.00
53546;BME280;39432;51.902;10.844;2024-03-23T02:10:20;98914.03;;;8.08;100.00
53546;BME280;39432;51.902;10.844;2024-03-23T02:12:47;98915.25;;;8.23;100.00
53546;BME280;39432;51.902;10.844;2024-03-23T02:15:14;98910.22;;;8.09;100.00
53546;BME280;39432;51.902;10.844;2024-03-23T02:17:44;98891.78;;;7.62;100.00
53546;BME280;39432;51.902;10.844;2024-03-23T02:20:12;98906.19;;;7.36;100.00
53546;BME280;39432;51.902;10.844;2024-03-23T02:22:39;98920.16;;;7.66;100.00
53546;BME280;39432;51.902;10.844;2024-03-23T02:25:08;98933.53;;;7.46;100.00
53546;BME280;39432;51.902;10.844;2024-03-23T02:27:36;98926.06;;;7.58;100.00
53546;BME280;39432;51.902;10.844;2024-03-23T02:30:03;98929.09;;;7.40;100.00
53546;BME280;39432;51.902;10.844;2024-03-23T02:32:31;98925.28;;;7.41;100.00
53546;BME280;39432;51.902;10.844;2024-03-23T02:34:57;98925.75;;;7.55;100.00
53546;BME280;39432;51.902;10.844;2024-03-23T02:37:25;98922.63;;;7.46;100.00
53546;BME280;39432;51.902;10.844;2024-03-23T02:39:55;98918.88;;;7.52;100.00
53546;BME280;39432;51.902;10.844;2024-03-23T02:42:24;98918.88;;;7.47;100.00
53546;BME280;39432;51.902;10.844;2024-03-23T02:44:51;98916.69;;;7.27;100.00
53546;BME280;39432;51.902;10.844;2024-03-23T02:47:18;98922.94;;;6.84;100.00
53546;BME280;39432;51.902;10.844;2024-03-23T02:49:44;98928.72;;;7.53;100.00
53546;BME280;39432;51.902;10.844;2024-03-23T02:52:14;98935.63;;;7.88;100.00
53546;BME280;39432;51.902;10.844;2024-03-23T02:54:41;98926.22;;;7.74;100.00
53546;BME280;39432;51.902;10.844;2024-03-23T02:57:09;98907.47;;;7.77;100.00
53546;BME280;39432;51.902;10.844;2024-03-23T02:59:38;98899.50;;;7.98;100.00
53546;BME280;39432;51.902;10.844;2024-03-23T03:02:05;98885.66;;;8.04;100.00
53546;BME280;39432;51.902;10.844;2024-03-23T03:04:32;98891.94;;;7.78;100.00
53546;BME280;39432;51.902;10.844;2024-03-23T03:07:00;98885.78;;;7.87;100.00
53546;BME280;39432;51.902;10.844;2024-03-23T03:09:26;98885.78;;;7.60;100.00
53546;BME280;39432;51.902;10.844;2024-03-23T03:11:55;98893.47;;;7.69;100.00
53546;BME280;39432;51.902;10.844;2024-03-23T03:14:24;98885.56;;;7.40;100.00
53546;BME280;39432;51.902;10.844;2024-03-23T03:16:56;98888.88;;;7.42;100.00
53546;BME280;39432;51.902;10.844;2024-03-23T03:19:24;98886.19;;;7.47;100.00
53546;BME280;39432;51.902;10.844;2024-03-23T03:21:52;98880.78;;;7.03;100.00
53546;BME280;39432;51.902;10.844;2024-03-23T03:24:21;98894.19;;;7.32;100.00
53546;BME280;39432;51.902;10.844;2024-03-23T03:26:49;98892.06;;;7.61;100.00
53546;BME280;39432;51.902;10.844;2024-03-23T03:29:16;98883.31;;;7.32;100.00
53546;BME280;39432;51.902;10.844;2024-03-23T03:31:43;98876.94;;;7.48;100.00
53546;BME280;39432;51.902;10.844;2024-03-23T03:34:13;98867.72;;;7.49;100.00
53546;BME280;39432;51.902;10.844;2024-03-23T03:36:39;98861.22;;;7.28;100.00
53546;BME280;39432;51.902;10.844;2024-03-23T03:39:10;98860.56;;;7.43;100.00
53546;BME280;39432;51.902;10.844;2024-03-23T03:41:37;98868.72;;;7.97;100.00
53546;BME280;39432;51.902;10.844;2024-03-23T03:44:04;98852.03;;;8.21;100.00
53546;BME280;39432;51.902;10.844;2024-03-23T03:46:35;98839.97;;;7.52;100.00
53546;BME280;39432;51.902;10.844;2024-03-23T03:49:03;98842.94;;;7.78;100.00
53546;BME280;39432;51.902;10.844;2024-03-23T03:51:33;98833.69;;;7.79;100.00
53546;BME280;39432;51.902;10.844;2024-03-23T03:54:00;98824.91;;;8.04;100.00
53546;BME280;39432;51.902;10.844;2024-03-23T03:56:29;98810.94;;;7.63;100.00
53546;BME280;39432;51.902;10.844;2024-03-23T03:58:56;98814.75;;;7.94;100.00
53546;BME280;39432;51.902;10.844;2024-03-23T04:01:24;98809.13;;;7.74;100.00
53546;BME280;39432;51.902;10.844;2024-03-23T04:03:51;98807.19;;;8.01;100.00
53546;BME280;39432;51.902;10.844;2024-03-23T04:06:22;98801.16;;;7.94;100.00
53546;BME280;39432;51.902;10.844;2024-03-23T04:08:53;98794.53;;;7.85;100.00
53546;BME280;39432;51.902;10.844;2024-03-23T04:11:19;98790.78;;;7.59;100.00
53546;BME280;39432;51.902;10.844;2024-03-23T04:13:46;98794.09;;;7.66;100.00
53546;BME280;39432;51.902;10.844;2024-03-23T04:16:24;98800.22;;;8.15;100.00
53546;BME280;39432;51.902;10.844;2024-03-23T04:18:51;98785.72;;;7.73;100.00
53546;BME280;39432;51.902;10.844;2024-03-23T04:21:21;98768.00;;;7.38;100.00
53546;BME280;39432;51.902;10.844;2024-03-23T04:23:48;98785.63;;;7.35;100.00
53546;BME280;39432;51.902;10.844;2024-03-23T04:26:22;98799.97;;;7.85;100.00
53546;BME280;39432;51.902;10.844;2024-03-23T04:28:49;98784.88;;;7.40;100.00
53546;BME280;39432;51.902;10.844;2024-03-23T04:31:16;98774.53;;;7.37;100.00
53546;BME280;39432;51.902;10.844;2024-03-23T04:33:46;98777.75;;;7.34;100.00
53546;BME280;39432;51.902;10.844;2024-03-23T04:36:13;98769.72;;;6.95;100.00
53546;BME280;39432;51.902;10.844;2024-03-23T04:38:41;98780.09;;;6.98;100.00
53546;BME280;39432;51.902;10.844;2024-03-23T04:41:07;98779.69;;;7.11;100.00
53546;BME280;39432;51.902;10.844;2024-03-23T04:43:44;98783.88;;;6.97;100.00
53546;BME280;39432;51.902;10.844;2024-03-23T04:46:20;98783.78;;;6.87;100.00
53546;BME280;39432;51.902;10.844;2024-03-23T04:48:48;98791.84;;;7.04;100.00
53546;BME280;39432;51.902;10.844;2024-03-23T04:51:20;98781.75;;;6.99;100.00
53546;BME280;39432;51.902;10.844;2024-03-23T04:53:48;98784.72;;;6.54;100.00
53546;BME280;39432;51.902;10.844;2024-03-23T04:56:14;98791.22;;;6.75;100.00
53546;BME280;39432;51.902;10.844;2024-03-23T04:58:44;98786.66;;;7.02;100.00
53546;BME280;39432;51.902;10.844;2024-03-23T05:01:10;98758.53;;;6.48;100.00
53546;BME280;39432;51.902;10.844;2024-03-23T05:03:39;98757.34;;;6.60;100.00
53546;BME280;39432;51.902;10.844;2024-03-23T05:06:06;98761.69;;;6.40;100.00
53546;BME280;39432;51.902;10.844;2024-03-23T05:08:33;98742.47;;;6.24;100.00
53546;BME280;39432;51.902;10.844;2024-03-23T05:11:01;98717.69;;;6.38;100.00
53546;BME280;39432;51.902;10.844;2024-03-23T05:13:33;98716.41;;;6.45;100.00
53546;BME280;39432;51.902;10.844;2024-03-23T05:16:03;98706.50;;;6.34;100.00
53546;BME280;39432;51.902;10.844;2024-03-23T05:18:31;98704.41;;;6.41;100.00
53546;BME280;39432;51.902;10.844;2024-03-23T05:20:59;98701.38;;;6.38;100.00
53546;BME280;39432;51.902;10.844;2024-03-23T05:23:26;98701.59;;;6.36;100.00
53546;BME280;39432;51.902;10.844;2024-03-23T05:25:55;98699.63;;;6.10;100.00
53546;BME280;39432;51.902;10.844;2024-03-23T05:28:23;98706.63;;;6.22;100.00
53546;BME280;39432;51.902;10.844;2024-03-23T05:30:53;98697.25;;;6.13;100.00
53546;BME280;39432;51.902;10.844;2024-03-23T05:33:23;98709.69;;;6.31;100.00
53546;BME280;39432;51.902;10.844;2024-03-23T05:35:56;98710.22;;;6.28;100.00
53546;BME280;39432;51.902;10.844;2024-03-23T05:38:23;98712.19;;;6.32;100.00
53546;BME280;39432;51.902;10.844;2024-03-23T05:40:55;98719.19;;;5.73;100.00
53546;BME280;39432;51.902;10.844;2024-03-23T05:43:25;98728.53;;;5.65;100.00
53546;BME280;39432;51.902;10.844;2024-03-23T05:45:54;98734.66;;;5.39;100.00
53546;BME280;39432;51.902;10.844;2024-03-23T05:48:27;98739.09;;;5.62;100.00
53546;BME280;39432;51.902;10.844;2024-03-23T05:50:57;98734.06;;;5.53;100.00
53546;BME280;39432;51.902;10.844;2024-03-23T05:53:24;98742.63;;;5.62;100.00
53546;BME280;39432;51.902;10.844;2024-03-23T05:56:00;98732.31;;;5.81;100.00
53546;BME280;39432;51.902;10.844;2024-03-23T05:58:27;98718.03;;;5.69;100.00
53546;BME280;39432;51.902;10.844;2024-03-23T06:00:57;98714.38;;;5.80;100.00
53546;BME280;39432;51.902;10.844;2024-03-23T06:03:27;98720.78;;;5.91;100.00
53546;BME280;39432;51.902;10.844;2024-03-23T06:05:54;98724.91;;;5.93;100.00
53546;BME280;39432;51.902;10.844;2024-03-23T06:08:23;98729.88;;;5.96;100.00
53546;BME280;39432;51.902;10.844;2024-03-23T06:10:51;98736.72;;;6.21;100.00
53546;BME280;39432;51.902;10.844;2024-03-23T06:13:18;98734.47;;;5.79;100.00
53546;BME280;39432;51.902;10.844;2024-03-23T06:15:45;98734.47;;;5.79;100.00
53546;BME280;39432;51.902;10.844;2024-03-23T06:18:12;98731.75;;;5.45;100.00
53546;BME280;39432;51.902;10.844;2024-03-23T06:20:42;98738.41;;;5.38;100.00
53546;BME280;39432;51.902;10.844;2024-03-23T06:23:08;98749.41;;;5.81;100.00
53546;BME280;39432;51.902;10.844;2024-03-23T06:25:35;98744.00;;;5.81;100.00
53546;BME280;39432;51.902;10.844;2024-03-23T06:28:02;98747.78;;;5.97;100.00
53546;BME280;39432;51.902;10.844;2024-03-23T06:30:28;98749.69;;;5.80;100.00
53546;BME280;39432;51.902;10.844;2024-03-23T06:32:55;98752.06;;;5.93;100.00
53546;BME280;39432;51.902;10.844;2024-03-23T06:35:21;98762.09;;;5.93;100.00
53546;BME280;39432;51.902;10.844;2024-03-23T06:37:50;98758.66;;;5.97;100.00
53546;BME280;39432;51.902;10.844;2024-03-23T06:40:23;98751.72;;;6.06;100.00
53546;BME280;39432;51.902;10.844;2024-03-23T06:42:49;98746.59;;;6.27;100.00
53546;BME280;39432;51.902;10.844;2024-03-23T06:45:18;98749.28;;;6.44;100.00
53546;BME280;39432;51.902;10.844;2024-03-23T06:47:47;98735.91;;;6.42;100.00
53546;BME280;39432;51.902;10.844;2024-03-23T06:50:13;98726.19;;;6.46;100.00
53546;BME280;39432;51.902;10.844;2024-03-23T06:52:42;98730.84;;;5.90;100.00
53546;BME280;39432;51.902;10.844;2024-03-23T06:55:12;98728.78;;;5.80;100.00
53546;BME280;39432;51.902;10.844;2024-03-23T06:57:40;98730.34;;;5.76;100.00
53546;BME280;39432;51.902;10.844;2024-03-23T07:00:17;98723.44;;;5.35;100.00
53546;BME280;39432;51.902;10.844;2024-03-23T07:02:43;98746.50;;;5.66;100.00
53546;BME280;39432;51.902;10.844;2024-03-23T07:05:12;98745.06;;;5.64;100.00
53546;BME280;39432;51.902;10.844;2024-03-23T07:07:38;98741.88;;;5.33;100.00
53546;BME280;39432;51.902;10.844;2024-03-23T07:10:12;98745.31;;;5.79;100.00
53546;BME280;39432;51.902;10.844;2024-03-23T07:12:39;98744.00;;;5.65;100.00
53546;BME280;39432;51.902;10.844;2024-03-23T07:15:07;98738.91;;;5.51;100.00
53546;BME280;39432;51.902;10.844;2024-03-23T07:17:34;98738.41;;;5.54;100.00
53546;BME280;39432;51.902;10.844;2024-03-23T07:20:01;98744.41;;;5.40;100.00
53546;BME280;39432;51.902;10.844;2024-03-23T07:22:30;98749.34;;;5.60;100.00
53546;BME280;39432;51.902;10.844;2024-03-23T07:25:00;98747.13;;;5.57;100.00
53546;BME280;39432;51.902;10.844;2024-03-23T07:27:33;98756.75;;;5.47;100.00
53546;BME280;39432;51.902;10.844;2024-03-23T07:30:01;98765.88;;;5.58;100.00
53546;BME280;39432;51.902;10.844;2024-03-23T07:32:27;98772.28;;;5.52;100.00
53546;BME280;39432;51.902;10.844;2024-03-23T07:34:53;98765.50;;;5.21;100.00
53546;BME280;39432;51.902;10.844;2024-03-23T07:37:20;98777.81;;;5.12;100.00
53546;BME280;39432;51.902;10.844;2024-03-23T07:39:47;98782.75;;;5.15;100.00
53546;BME280;39432;51.902;10.844;2024-03-23T07:42:17;98777.81;;;5.12;100.00
53546;BME280;39432;51.902;10.844;2024-03-23T07:44:51;98784.72;;;5.19;100.00
53546;BME280;39432;51.902;10.844;2024-03-23T07:47:25;98792.13;;;5.24;100.00
53546;BME280;39432;51.902;10.844;2024-03-23T07:49:52;98785.16;;;5.28;100.00
53546;BME280;39432;51.902;10.844;2024-03-23T07:52:18;98784.94;;;5.46;100.00
53546;BME280;39432;51.902;10.844;2024-03-23T07:54:44;98780.31;;;5.30;100.00
53546;BME280;39432;51.902;10.844;2024-03-23T07:57:13;98783.16;;;5.69;100.00
53546;BME280;39432;51.902;10.844;2024-03-23T07:59:39;98776.88;;;5.51;100.00
53546;BME280;39432;51.902;10.844;2024-03-23T08:02:08;98771.69;;;5.33;100.00
53546;BME280;39432;51.902;10.844;2024-03-23T08:04:34;98777.81;;;5.12;100.00
53546;BME280;39432;51.902;10.844;2024-03-23T08:07:01;98781.81;;;4.81;100.00
53546;BME280;39432;51.902;10.844;2024-03-23T08:09:35;98774.81;;;4.68;100.00
53546;BME280;39432;51.902;10.844;2024-03-23T08:12:03;98786.66;;;5.07;100.00
53546;BME280;39432;51.902;10.844;2024-03-23T08:14:32;98782.53;;;5.05;100.00
53546;BME280;39432;51.902;10.844;2024-03-23T08:17:00;98785.34;;;5.10;100.00
53546;BME280;39432;51.902;10.844;2024-03-23T08:19:33;98791.88;;;5.25;100.00
53546;BME280;39432;51.902;10.844;2024-03-23T08:22:01;98778.19;;;5.03;100.00
53546;BME280;39432;51.902;10.844;2024-03-23T08:24:35;98775.28;;;4.93;100.00
53546;BME280;39432;51.902;10.844;2024-03-23T08:27:06;98777.31;;;4.86;100.00
53546;BME280;39432;51.902;10.844;2024-03-23T08:29:36;98781.81;;;4.81;100.00
53546;BME280;39432;51.902;10.844;2024-03-23T08:32:04;98780.19;;;4.80;100.00
53546;BME280;39432;51.902;10.844;2024-03-23T08:34:33;98779.56;;;4.89;100.00
53546;BME280;39432;51.902;10.844;2024-03-23T08:36:59;98773.28;;;4.89;100.00
53546;BME280;39432;51.902;10.844;2024-03-23T08:39:28;98761.34;;;4.73;100.00
53546;BME280;39432;51.902;10.844;2024-03-23T08:41:54;98776.03;;;4.77;100.00
53546;BME280;39432;51.902;10.844;2024-03-23T08:44:21;98759.56;;;4.79;100.00
53546;BME280;39432;51.902;10.844;2024-03-23T08:46:47;98767.75;;;4.95;100.00
53546;BME280;39432;51.902;10.844;2024-03-23T08:49:13;98770.94;;;4.92;100.00
53546;BME280;39432;51.902;10.844;2024-03-23T08:51:43;98772.06;;;5.08;100.00
53546;BME280;39432;51.902;10.844;2024-03-23T08:54:09;98782.47;;;5.28;100.00
53546;BME280;39432;51.902;10.844;2024-03-23T08:56:36;98782.81;;;5.65;100.00
53546;BME280;39432;51.902;10.844;2024-03-23T08:59:02;98781.50;;;5.68;100.00
53546;BME280;39432;51.902;10.844;2024-03-23T09:01:30;98773.44;;;5.73;100.00
53546;BME280;39432;51.902;10.844;2024-03-23T09:03:56;98766.38;;;5.72;100.00
53546;BME280;39432;51.902;10.844;2024-03-23T09:06:22;98761.25;;;5.75;100.00
53546;BME280;39432;51.902;10.844;2024-03-23T09:08:52;98745.63;;;5.66;100.00
53546;BME280;39432;51.902;10.844;2024-03-23T09:11:18;98740.28;;;5.71;100.00
53546;BME280;39432;51.902;10.844;2024-03-23T09:13:44;98740.16;;;5.77;100.00
53546;BME280;39432;51.902;10.844;2024-03-23T09:16:15;98728.59;;;6.04;100.00
53546;BME280;39432;51.902;10.844;2024-03-23T09:18:43;98717.03;;;5.92;100.00
53546;BME280;39432;51.902;10.844;2024-03-23T09:21:11;98715.50;;;6.18;100.00
53546;BME280;39432;51.902;10.844;2024-03-23T09:23:39;98708.56;;;6.27;100.00
53546;BME280;39432;51.902;10.844;2024-03-23T09:26:08;98706.13;;;6.08;100.00
53546;BME280;39432;51.902;10.844;2024-03-23T09:28:34;98704.25;;;6.31;100.00
53546;BME280;39432;51.902;10.844;2024-03-23T09:31:04;98695.88;;;6.32;100.00
53546;BME280;39432;51.902;10.844;2024-03-23T09:33:31;98693.41;;;6.31;100.00
53546;BME280;39432;51.902;10.844;2024-03-23T09:36:02;98692.91;;;6.34;100.00
53546;BME280;39432;51.902;10.844;2024-03-23T09:38:29;98711.41;;;6.37;100.00
53546;BME280;39432;51.902;10.844;2024-03-23T09:40:56;98715.72;;;6.55;100.00
53546;BME280;39432;51.902;10.844;2024-03-23T09:43:27;98704.41;;;6.41;100.00
53546;BME280;39432;51.902;10.844;2024-03-23T09:45:53;98712.34;;;6.26;100.00
53546;BME280;39432;51.902;10.844;2024-03-23T09:48:20;98717.09;;;5.97;100.00
53546;BME280;39432;51.902;10.844;2024-03-23T09:50:46;98728.97;;;5.74;100.00
53546;BME280;39432;51.902;10.844;2024-03-23T09:53:13;98735.53;;;5.78;100.00
53546;BME280;39432;51.902;10.844;2024-03-23T09:55:41;98748.03;;;5.79;100.00
53546;BME280;39432;51.902;10.844;2024-03-23T09:58:12;98756.81;;;5.86;100.00
53546;BME280;39432;51.902;10.844;2024-03-23T10:00:43;98762.69;;;5.95;100.00
53546;BME280;39432;51.902;10.844;2024-03-23T10:03:10;98758.97;;;5.84;100.00
53546;BME280;39432;51.902;10.844;2024-03-23T10:05:37;98758.97;;;5.84;100.00
53546;BME280;39432;51.902;10.844;2024-03-23T10:08:17;98747.72;;;5.92;100.00
53546;BME280;39432;51.902;10.844;2024-03-23T10:10:45;98746.28;;;6.45;100.00
53546;BME280;39432;51.902;10.844;2024-03-23T10:13:33;98741.09;;;6.22;100.00
53546;BME280;39432;51.902;10.844;2024-03-23T10:16:03;98735.34;;;6.84;100.00
53546;BME280;39432;51.902;10.844;2024-03-23T10:18:29;98727.75;;;6.64;100.00
53546;BME280;39432;51.902;10.844;2024-03-23T10:21:07;98730.72;;;7.11;100.00
53546;BME280;39432;51.902;10.844;2024-03-23T10:23:34;98718.72;;;7.34;100.00
53546;BME280;39432;51.902;10.844;2024-03-23T10:26:13;98704.31;;;7.39;100.00
53546;BME280;39432;51.902;10.844;2024-03-23T10:28:50;98693.38;;;7.66;100.00
53546;BME280;39432;51.902;10.844;2024-03-23T10:31:21;98683.59;;;7.33;100.00
53546;BME280;39432;51.902;10.844;2024-03-23T10:33:48;98678.25;;;7.43;100.00
53546;BME280;39432;51.902;10.844;2024-03-23T10:36:18;98674.78;;;7.95;100.00
53546;BME280;39432;51.902;10.844;2024-03-23T10:38:50;98676.81;;;8.15;100.00
53546;BME280;39432;51.902;10.844;2024-03-23T10:41:17;98662.34;;;8.09;100.00
53546;BME280;39432;51.902;10.844;2024-03-23T10:43:46;98642.22;;;8.21;100.00
53546;BME280;39432;51.902;10.844;2024-03-23T10:46:12;98639.06;;;8.44;100.00
53546;BME280;39432;51.902;10.844;2024-03-23T10:48:42;98628.72;;;8.41;100.00
53546;BME280;39432;51.902;10.844;2024-03-23T10:51:11;98612.91;;;8.43;100.00
53546;BME280;39432;51.902;10.844;2024-03-23T10:53:40;98590.75;;;8.29;100.00
53546;BME280;39432;51.902;10.844;2024-03-23T10:56:08;98597.19;;;8.81;100.00
53546;BME280;39432;51.902;10.844;2024-03-23T10:58:38;98583.53;;;8.81;100.00
53546;BME280;39432;51.902;10.844;2024-03-23T11:01:06;98586.00;;;8.92;100.00
53546;BME280;39432;51.902;10.844;2024-03-23T11:03:34;98577.50;;;8.53;100.00
53546;BME280;39432;51.902;10.844;2024-03-23T11:06:04;98572.06;;;8.53;100.00
53546;BME280;39432;51.902;10.844;2024-03-23T11:08:33;98572.06;;;8.53;100.00
53546;BME280;39432;51.902;10.844;2024-03-23T11:11:19;98588.91;;;8.40;100.00
53546;BME280;39432;51.902;10.844;2024-03-23T11:13:48;98579.53;;;8.10;100.00
53546;BME280;39432;51.902;10.844;2024-03-23T11:16:16;98579.25;;;8.12;100.00
53546;BME280;39432;51.902;10.844;2024-03-23T11:18:43;98596.84;;;8.41;100.00
53546;BME280;39432;51.902;10.844;2024-03-23T11:24:15;98597.03;;;8.35;100.00
53546;BME280;39432;51.902;10.844;2024-03-23T11:26:43;98606.63;;;7.85;100.00
53546;BME280;39432;51.902;10.844;2024-03-23T11:29:09;98594.84;;;7.69;100.00
53546;BME280;39432;51.902;10.844;2024-03-23T11:31:45;98594.91;;;7.79;100.00
53546;BME280;39432;51.902;10.844;2024-03-23T11:34:23;98596.44;;;8.17;100.00
53546;BME280;39432;51.902;10.844;2024-03-23T11:37:03;98595.22;;;8.61;100.00
53546;BME280;39432;51.902;10.844;2024-03-23T11:39:30;98592.22;;;8.62;100.00
53546;BME280;39432;51.902;10.844;2024-03-23T11:41:59;98583.44;;;8.40;100.00
53546;BME280;39432;51.902;10.844;2024-03-23T11:44:26;98576.44;;;8.90;100.00
53546;BME280;39432;51.902;10.844;2024-03-23T11:46:53;98565.25;;;8.66;100.00
53546;BME280;39432;51.902;10.844;2024-03-23T11:49:21;98573.69;;;9.36;100.00
53546;BME280;39432;51.902;10.844;2024-03-23T11:51:56;98569.88;;;9.16;100.00
53546;BME280;39432;51.902;10.844;2024-03-23T11:54:23;98577.28;;;8.85;100.00
53546;BME280;39432;51.902;10.844;2024-03-23T11:56:56;98548.34;;;8.69;100.00
53546;BME280;39432;51.902;10.844;2024-03-23T11:59:33;98543.72;;;8.69;100.00
53546;BME280;39432;51.902;10.844;2024-03-23T12:02:06;98536.38;;;8.85;100.00
53546;BME280;39432;51.902;10.844;2024-03-23T12:04:36;98528.44;;;8.63;100.00
53546;BME280;39432;51.902;10.844;2024-03-23T12:07:14;98525.16;;;8.61;100.00
53546;BME280;39432;51.902;10.844;2024-03-23T12:09:41;98516.44;;;8.90;100.00
53546;BME280;39432;51.902;10.844;2024-03-23T12:12:10;98516.16;;;9.02;100.00
53546;BME280;39432;51.902;10.844;2024-03-23T12:14:37;98520.25;;;8.94;100.00
53546;BME280;39432;51.902;10.844;2024-03-23T12:17:09;98519.13;;;9.20;100.00
53546;BME280;39432;51.902;10.844;2024-03-23T12:19:36;98514.78;;;8.99;100.00
53546;BME280;39432;51.902;10.844;2024-03-23T12:22:06;98505.44;;;9.46;100.00
53546;BME280;39432;51.902;10.844;2024-03-23T12:24:35;98508.69;;;9.53;100.00
53546;BME280;39432;51.902;10.844;2024-03-23T12:27:06;98519.09;;;9.36;100.00
53546;BME280;39432;51.902;10.844;2024-03-23T12:29:34;98522.34;;;9.43;100.00
53546;BME280;39432;51.902;10.844;2024-03-23T12:32:03;98551.59;;;9.12;100.00
53546;BME280;39432;51.902;10.844;2024-03-23T12:34:29;98565.66;;;7.54;100.00
53546;BME280;39432;51.902;10.844;2024-03-23T12:37:01;98602.31;;;6.45;100.00
53546;BME280;39432;51.902;10.844;2024-03-23T12:39:28;98617.22;;;6.21;100.00
53546;BME280;39432;51.902;10.844;2024-03-23T12:41:58;98639.28;;;6.02;100.00
53546;BME280;39432;51.902;10.844;2024-03-23T12:44:24;98670.81;;;5.70;100.00
53546;BME280;39432;51.902;10.844;2024-03-23T12:46:54;98680.94;;;5.58;100.00
53546;BME280;39432;51.902;10.844;2024-03-23T12:49:20;98669.13;;;6.02;100.00
53546;BME280;39432;51.902;10.844;2024-03-23T12:51:53;98666.06;;;6.65;100.00
53546;BME280;39432;51.902;10.844;2024-03-23T12:54:20;98665.16;;;7.08;100.00
53546;BME280;39432;51.902;10.844;2024-03-23T12:56:46;98665.66;;;7.32;100.00
53546;BME280;39432;51.902;10.844;2024-03-23T12:59:15;98644.22;;;7.08;100.00
53546;BME280;39432;51.902;10.844;2024-03-23T13:01:42;98645.84;;;7.42;100.00
53546;BME280;39432;51.902;10.844;2024-03-23T13:04:11;98637.75;;;7.94;100.00
53546;BME280;39432;51.902;10.844;2024-03-23T13:06:40;98632.38;;;7.62;100.00
53546;BME280;39432;51.902;10.844;2024-03-23T13:09:06;98631.16;;;7.85;100.00
53546;BME280;39432;51.902;10.844;2024-03-23T13:11:36;98626.50;;;8.38;100.00
53546;BME280;39432;51.902;10.844;2024-03-23T13:14:06;98629.31;;;8.58;100.00
53546;BME280;39432;51.902;10.844;2024-03-23T13:16:36;98624.47;;;9.16;100.00
53546;BME280;39432;51.902;10.844;2024-03-23T13:19:03;98617.59;;;8.58;100.00
53546;BME280;39432;51.902;10.844;2024-03-23T13:21:29;98615.13;;;8.66;100.00
53546;BME280;39432;51.902;10.844;2024-03-23T13:23:56;98611.19;;;8.27;100.00
53546;BME280;39432;51.902;10.844;2024-03-23T13:26:24;98613.34;;;8.14;100.00
53546;BME280;39432;51.902;10.844;2024-03-23T13:28:50;98635.19;;;7.03;100.00
53546;BME280;39432;51.902;10.844;2024-03-23T13:31:19;98662.56;;;6.20;100.00
53546;BME280;39432;51.902;10.844;2024-03-23T13:33:49;98664.31;;;5.71;100.00
53546;BME280;39432;51.902;10.844;2024-03-23T13:36:18;98679.72;;;5.48;100.00
53546;BME280;39432;51.902;10.844;2024-03-23T13:38:44;98680.84;;;5.69;100.00
53546;BME280;39432;51.902;10.844;2024-03-23T13:41:12;98667.19;;;5.81;100.00
53546;BME280;39432;51.902;10.844;2024-03-23T13:43:40;98653.94;;;6.23;100.00
53546;BME280;39432;51.902;10.844;2024-03-23T13:46:07;98649.88;;;6.75;100.00
53546;BME280;39432;51.902;10.844;2024-03-23T13:48:34;98639.09;;;7.49;100.00
53546;BME280;39432;51.902;10.844;2024-03-23T13:51:04;98635.31;;;7.18;100.00